Time;durP1;ratioP1;P1;durP2;ratioP2;P2;SDS_P1;SDS_P2;PMS_P1;PMS_P2;Temp;Humidity;BMP_temperature;BMP_pressure;BME280_temperature;BME280_humidity;BME280_pressure;Samples;Min_cycle;Max_cycle;Signal;HPM_P1;HPM_P2
2021/10/03 00:01:32;;;;;;;;;;;;;;;4.72;100.00;98317.22;5124924;27;20014;-80
2021/10/03 00:03:58;;;;;;;;;;;;;;;4.52;100.00;98316.28;5123618;27;19916;-82
2021/10/03 00:06:24;;;;;;;;;;;;;;;4.47;100.00;98318.25;5105216;27;19915;-81
2021/10/03 00:08:51;;;;;;;;;;;;;;;4.43;100.00;98321.06;5108237;27;19993;-81
2021/10/03 00:11:16;;;;;;;;;;;;;;;4.46;100.00;98320.94;5106371;27;19916;-81
2021/10/03 00:13:41;;;;;;;;;;;;;;;4.38;100.00;98316.00;5105926;27;19966;-83
2021/10/03 00:16:07;;;;;;;;;;;;;;;4.41;100.00;98325.53;5124446;27;19964;-81
2021/10/03 00:18:32;;;;;;;;;;;;;;;4.47;100.00;98326.13;5124196;27;19948;-82
2021/10/03 00:20:58;;;;;;;;;;;;;;;4.39;100.00;98322.09;5105190;27;19916;-81
2021/10/03 00:23:23;;;;;;;;;;;;;;;4.40;100.00;98311.56;5124786;27;19959;-81
2021/10/03 00:25:49;;;;;;;;;;;;;;;4.45;100.00;98314.88;5123363;27;19916;-81
2021/10/03 00:28:14;;;;;;;;;;;;;;;4.41;100.00;98304.56;5123996;27;19926;-82
2021/10/03 00:30:41;;;;;;;;;;;;;;;4.39;100.00;98306.38;5124746;27;19919;-80
2021/10/03 00:33:07;;;;;;;;;;;;;;;4.38;100.00;98315.16;5124554;27;20295;-80
2021/10/03 00:35:33;;;;;;;;;;;;;;;4.33;100.00;98305.72;5123007;27;19931;-80
2021/10/03 00:38:01;;;;;;;;;;;;;;;4.35;100.00;98298.63;5124571;27;19955;-81
2021/10/03 00:40:28;;;;;;;;;;;;;;;4.40;99.16;98295.81;5124012;27;19919;-82
2021/10/03 00:42:54;;;;;;;;;;;;;;;4.30;98.38;98289.25;5123961;27;19920;-81
2021/10/03 00:45:19;;;;;;;;;;;;;;;4.24;98.57;98295.59;5124536;27;19916;-82
2021/10/03 00:47:44;;;;;;;;;;;;;;;4.22;98.12;98286.94;5124271;27;19920;-81
2021/10/03 00:50:13;;;;;;;;;;;;;;;5.00;100.00;98282.78;5122873;27;19941;-80
2021/10/03 00:52:39;;;;;;;;;;;;;;;6.09;100.00;98276.06;5124332;27;19922;-81
2021/10/03 00:55:04;;;;;;;;;;;;;;;6.77;100.00;98281.44;5124211;27;20289;-81
2021/10/03 00:57:29;;;;;;;;;;;;;;;7.26;100.00;98285.94;5123720;27;19941;-81
2021/10/03 00:59:55;;;;;;;;;;;;;;;7.55;100.00;98267.72;5123840;27;19973;-80
2021/10/03 01:02:20;;;;;;;;;;;;;;;7.82;100.00;98276.72;5124095;27;19915;-81
2021/10/03 03:19:06;;;;;;;;;;;;;;;11.40;100.00;98113.78;5014934;28;20020;-78
2021/10/03 03:21:31;;;;;;;;;;;;;;;11.42;100.00;98111.03;5013354;28;20023;-79
2021/10/03 03:23:56;;;;;;;;;;;;;;;11.45;100.00;98106.38;5015253;28;20276;-78
2021/10/03 03:26:21;;;;;;;;;;;;;;;11.47;100.00;98097.44;5014962;28;19924;-80
2021/10/03 03:28:47;;;;;;;;;;;;;;;11.49;100.00;98095.50;5015562;28;19933;-80
2021/10/03 03:31:12;;;;;;;;;;;;;;;11.57;100.00;98104.59;5013820;28;20307;-78
2021/10/03 03:33:37;;;;;;;;;;;;;;;11.66;100.00;98094.28;5015037;28;19922;-78
2021/10/03 03:36:03;;;;;;;;;;;;;;;11.66;100.00;98091.63;5015161;28;19968;-80
2021/10/03 03:38:35;;;;;;;;;;;;;;;11.68;100.00;98095.88;5014700;28;20276;-78
2021/10/03 03:41:00;;;;;;;;;;;;;;;11.71;100.00;98090.34;5015275;28;20296;-78
2021/10/03 03:43:26;;;;;;;;;;;;;;;11.71;100.00;98087.69;5014880;28;19917;-78
2021/10/03 03:45:51;;;;;;;;;;;;;;;11.75;100.00;98099.75;5013607;28;20284;-77
2021/10/03 03:48:16;;;;;;;;;;;;;;;11.76;100.00;98098.78;5014797;28;19952;-79
2021/10/03 03:50:43;;;;;;;;;;;;;;;11.59;100.00;98088.59;5013772;28;19917;-80
2021/10/03 03:53:08;;;;;;;;;;;;;;;9.68;100.00;98088.63;5014608;28;19917;-78
2021/10/03 03:55:34;;;;;;;;;;;;;;;8.75;100.00;98093.69;5014613;28;19937;-78
2021/10/03 03:57:59;;;;;;;;;;;;;;;8.45;100.00;98092.81;5013392;28;19968;-81
2021/10/03 04:00:24;;;;;;;;;;;;;;;8.18;100.00;98096.19;5013212;28;19971;-78
2021/10/03 04:02:49;;;;;;;;;;;;;;;8.00;100.00;98090.19;5014396;28;20399;-78
2021/10/03 04:05:15;;;;;;;;;;;;;;;7.72;100.00;98080.44;5013198;28;19922;-78
2021/10/03 04:07:40;;;;;;;;;;;;;;;7.61;100.00;98093.38;5014499;28;20352;-79
2021/10/03 04:10:06;;;;;;;;;;;;;;;7.50;100.00;98098.41;5014424;28;20349;-78
2021/10/03 04:12:31;;;;;;;;;;;;;;;7.40;100.00;98085.78;5012556;28;19928;-79
2021/10/03 04:14:57;;;;;;;;;;;;;;;7.28;100.00;98094.38;5013074;28;19965;-80
2021/10/03 04:17:22;;;;;;;;;;;;;;;7.29;100.00;98093.41;5020309;28;19928;-79
2021/10/03 04:19:47;;;;;;;;;;;;;;;7.59;100.00;98082.06;5033944;28;19928;-79
2021/10/03 04:22:13;;;;;;;;;;;;;;;7.73;100.00;98076.84;5034008;28;20387;-80
2021/10/03 04:24:38;;;;;;;;;;;;;;;7.64;100.00;98090.56;5033733;28;20338;-80
2021/10/03 04:27:03;;;;;;;;;;;;;;;7.49;100.00;98099.38;5033694;28;19971;-80
2021/10/03 04:29:28;;;;;;;;;;;;;;;7.40;100.00;98103.34;5033705;28;19921;-79
2021/10/03 04:31:54;;;;;;;;;;;;;;;7.24;100.00;98098.09;5032474;28;19940;-79
2021/10/03 04:34:19;;;;;;;;;;;;;;;7.13;100.00;98103.97;5033678;28;19921;-79
2021/10/03 04:36:44;;;;;;;;;;;;;;;7.07;100.00;98112.22;5032330;28;20000;-79
2021/10/03 04:39:09;;;;;;;;;;;;;;;6.94;100.00;98104.16;5033344;28;19929;-80
2021/10/03 04:41:35;;;;;;;;;;;;;;;6.87;100.00;98102.78;5033471;28;20387;-79
2021/10/03 04:44:00;;;;;;;;;;;;;;;6.85;100.00;98096.75;5032209;28;20000;-79
2021/10/03 04:46:25;;;;;;;;;;;;;;;6.81;100.00;98089.94;5032162;28;19921;-79
2021/10/03 04:48:51;;;;;;;;;;;;;;;6.73;100.00;98099.13;5033646;28;20375;-79
2021/10/03 04:51:16;;;;;;;;;;;;;;;6.65;100.00;98095.19;5033341;28;19979;-79
2021/10/03 04:53:41;;;;;;;;;;;;;;;6.61;100.00;98089.25;5033300;28;19921;-79
2021/10/03 04:56:06;;;;;;;;;;;;;;;6.57;100.00;98087.69;5033034;28;19917;-78
2021/10/03 04:58:33;;;;;;;;;;;;;;;6.46;100.00;98077.75;5033189;28;20426;-79
2021/10/03 05:00:58;;;;;;;;;;;;;;;6.43;100.00;98074.41;5032017;28;19917;-79
2021/10/03 05:03:23;;;;;;;;;;;;;;;6.41;100.00;98076.28;5033129;28;19933;-79
2021/10/03 05:05:48;;;;;;;;;;;;;;;6.40;100.00;98074.59;5033117;28;19924;-79
2021/10/03 05:08:14;;;;;;;;;;;;;;;6.38;100.00;98077.28;5033092;28;19921;-79
2021/10/03 05:10:39;;;;;;;;;;;;;;;6.29;100.00;98068.13;5032072;28;19920;-78
2021/10/03 05:13:05;;;;;;;;;;;;;;;6.22;100.00;98076.41;5033059;28;19928;-79
2021/10/03 05:15:30;;;;;;;;;;;;;;;6.18;100.00;98086.25;5030892;28;19921;-79
2021/10/03 05:17:56;;;;;;;;;;;;;;;6.17;100.00;98084.53;5032937;28;19974;-79
2021/10/03 05:20:21;;;;;;;;;;;;;;;6.10;100.00;98078.75;5032845;28;19917;-79
2021/10/03 05:22:46;;;;;;;;;;;;;;;6.11;100.00;98069.06;5032483;28;19925;-80
2021/10/03 05:25:11;;;;;;;;;;;;;;;6.03;100.00;98073.88;5030387;28;20372;-79
2021/10/03 13:05:35;;;;;;;;;;;;;;;8.47;100.00;98442.03;5216047;23;20029;-77
2021/10/03 13:08:01;;;;;;;;;;;;;;;8.73;100.00;98450.28;4993500;28;20391;-76
2021/10/03 13:10:26;;;;;;;;;;;;;;;8.91;100.00;98443.94;4993755;28;20020;-76
2021/10/03 13:12:52;;;;;;;;;;;;;;;9.02;100.00;98445.13;4993508;28;19917;-77
2021/10/03 13:15:17;;;;;;;;;;;;;;;9.07;100.00;98443.06;4993655;28;20450;-76
2021/10/03 13:17:42;;;;;;;;;;;;;;;9.16;100.00;98431.97;4993786;28;20017;-77
2021/10/03 13:20:08;;;;;;;;;;;;;;;9.26;100.00;98426.97;4992266;28;19921;-78
2021/10/03 13:22:33;;;;;;;;;;;;;;;9.39;100.00;98437.69;4993869;28;19922;-76
2021/10/03 13:24:59;;;;;;;;;;;;;;;9.52;100.00;98436.00;4993393;28;19975;-76
2021/10/03 13:27:24;;;;;;;;;;;;;;;9.59;100.00;98445.28;4993408;28;20250;-77
2021/10/03 13:29:49;;;;;;;;;;;;;;;9.66;100.00;98466.91;4993364;28;19925;-77
2021/10/03 13:32:14;;;;;;;;;;;;;;;9.77;100.00;98461.81;4993389;28;19918;-77
2021/10/03 13:34:40;;;;;;;;;;;;;;;9.88;100.00;98482.34;4992298;28;19956;-77
2021/10/03 13:37:05;;;;;;;;;;;;;;;9.93;100.00;98477.59;4992947;28;19921;-81
2021/10/03 13:39:30;;;;;;;;;;;;;;;10.07;100.00;98489.13;4991964;28;20301;-77
2021/10/03 13:41:55;;;;;;;;;;;;;;;10.12;100.00;98490.56;4992753;28;19918;-78
2021/10/03 13:44:21;;;;;;;;;;;;;;;10.20;100.00;98483.97;4992657;28;19924;-77
2021/10/03 13:46:46;;;;;;;;;;;;;;;10.26;100.00;98481.78;4993218;28;20288;-78
2021/10/03 13:49:11;;;;;;;;;;;;;;;10.34;100.00;98492.78;4991904;28;19978;-76
2021/10/03 13:51:37;;;;;;;;;;;;;;;10.36;100.00;98498.81;4992975;28;19922;-77
2021/10/03 13:54:02;;;;;;;;;;;;;;;10.45;100.00;98509.78;4992965;28;19921;-77
2021/10/03 13:56:27;;;;;;;;;;;;;;;10.52;100.00;98514.59;4992889;28;19925;-77
2021/10/03 13:58:52;;;;;;;;;;;;;;;10.56;100.00;98520.53;4992808;28;19960;-77
2021/10/03 14:01:18;;;;;;;;;;;;;;;10.61;100.00;98518.47;4992944;28;20364;-78
2021/10/03 14:03:43;;;;;;;;;;;;;;;10.66;100.00;98524.31;4990232;28;19926;-80
2021/10/03 14:06:08;;;;;;;;;;;;;;;10.72;100.00;98536.31;4992653;28;19926;-77
2021/10/03 14:08:33;;;;;;;;;;;;;;;10.79;100.00;98539.44;4992749;28;19980;-78
2021/10/03 14:10:59;;;;;;;;;;;;;;;10.81;100.00;98537.53;4992691;28;20000;-77
2021/10/03 14:13:24;;;;;;;;;;;;;;;10.88;100.00;98549.44;4992985;28;19928;-77
2021/10/03 14:15:49;;;;;;;;;;;;;;;10.92;100.00;98547.47;4991708;28;19941;-77
2021/10/03 14:18:14;;;;;;;;;;;;;;;10.95;100.00;98557.88;4992233;28;19976;-80
2021/10/03 14:20:40;;;;;;;;;;;;;;;11.04;100.00;98563.44;4990526;28;19922;-79
2021/10/03 14:23:06;;;;;;;;;;;;;;;11.07;100.00;98568.53;4992358;28;19968;-77
2021/10/03 14:25:32;;;;;;;;;;;;;;;9.84;100.00;98581.34;4991861;28;20281;-76
2021/10/03 14:27:57;;;;;;;;;;;;;;;8.52;100.00;98584.31;4990989;28;19918;-77
2021/10/03 14:30:23;;;;;;;;;;;;;;;8.00;100.00;98593.16;4992540;28;19921;-79
2021/10/03 14:32:48;;;;;;;;;;;;;;;7.76;100.00;98590.84;4992387;28;20013;-80
2021/10/03 14:35:14;;;;;;;;;;;;;;;7.56;100.00;98604.16;4991008;28;20021;-77
2021/10/03 14:37:39;;;;;;;;;;;;;;;7.31;100.00;98609.75;4992350;28;20284;-77
2021/10/03 14:40:05;;;;;;;;;;;;;;;7.23;100.00;98618.06;4992298;28;19972;-77
2021/10/03 14:42:30;;;;;;;;;;;;;;;7.08;100.00;98620.50;4992347;28;19918;-77
2021/10/03 14:44:55;;;;;;;;;;;;;;;6.95;100.00;98632.50;4992355;28;20403;-77
2021/10/03 14:47:20;;;;;;;;;;;;;;;6.92;100.00;98635.28;4992497;28;20027;-78
2021/10/03 14:49:46;;;;;;;;;;;;;;;6.79;100.00;98637.63;4991132;28;19925;-77
2021/10/03 14:52:11;;;;;;;;;;;;;;;6.71;100.00;98632.72;4992250;28;19918;-78
2021/10/03 14:54:37;;;;;;;;;;;;;;;6.62;100.00;98635.78;4992285;28;20262;-79
2021/10/03 14:57:03;;;;;;;;;;;;;;;6.60;100.00;98637.59;4994302;28;20331;-77
2021/10/03 14:59:28;;;;;;;;;;;;;;;6.60;100.00;98647.28;4996102;28;19929;-77
2021/10/03 15:01:53;;;;;;;;;;;;;;;6.51;100.00;98640.63;4996279;28;19925;-77
2021/10/03 15:04:19;;;;;;;;;;;;;;;6.40;100.00;98643.78;4994791;28;19969;-79
2021/10/03 15:06:44;;;;;;;;;;;;;;;6.34;100.00;98639.63;4996052;28;19922;-77
2021/10/03 15:09:09;;;;;;;;;;;;;;;6.31;100.00;98660.81;4995879;28;19964;-78
2021/10/03 15:11:34;;;;;;;;;;;;;;;6.26;100.00;98662.78;4995836;28;19924;-79
2021/10/03 15:14:00;;;;;;;;;;;;;;;6.26;100.00;98662.78;4995745;28;20288;-80
2021/10/03 15:16:25;;;;;;;;;;;;;;;6.22;100.00;98679.59;4994657;28;20020;-77
2021/10/03 15:18:50;;;;;;;;;;;;;;;6.23;100.00;98665.53;4994645;28;19925;-78
2021/10/03 15:21:15;;;;;;;;;;;;;;;6.17;100.00;98673.69;4995762;28;20016;-80
2021/10/03 15:23:41;;;;;;;;;;;;;;;6.24;100.00;98674.28;4995736;28;19914;-77
2021/10/03 15:26:06;;;;;;;;;;;;;;;6.16;100.00;98679.91;4995559;28;19961;-78
2021/10/03 15:28:31;;;;;;;;;;;;;;;6.10;100.00;98680.16;4995650;28;19918;-78
2021/10/03 15:30:57;;;;;;;;;;;;;;;6.06;100.00;98668.88;4995606;28;19918;-77
2021/10/03 15:33:22;;;;;;;;;;;;;;;6.07;100.00;98693.41;4994376;28;19971;-79
2021/10/03 15:35:47;;;;;;;;;;;;;;;6.02;100.00;98696.25;4995505;28;19918;-78
2021/10/03 15:38:13;;;;;;;;;;;;;;;6.03;100.00;98702.34;4995666;28;19922;-78
2021/10/03 15:40:38;;;;;;;;;;;;;;;5.90;100.00;98713.31;4995234;28;19965;-77
2021/10/03 15:43:03;;;;;;;;;;;;;;;5.94;100.00;98716.72;4995288;28;20316;-79
2021/10/03 15:45:29;;;;;;;;;;;;;;;5.92;100.00;98722.03;4994056;28;19944;-77
2021/10/03 15:47:54;;;;;;;;;;;;;;;5.85;100.00;98725.81;4994959;28;19943;-77
2021/10/03 15:50:19;;;;;;;;;;;;;;;5.84;100.00;98724.13;4993934;28;19921;-78
2021/10/03 15:52:46;;;;;;;;;;;;;;;5.86;100.00;98729.31;4993901;28;19988;-80
2021/10/03 15:55:12;;;;;;;;;;;;;;;5.86;100.00;98726.69;4995074;28;19921;-77
2021/10/03 15:57:38;;;;;;;;;;;;;;;5.78;100.00;98733.09;4994233;28;20010;-80
2021/10/03 16:00:04;;;;;;;;;;;;;;;5.80;100.00;98730.41;4993684;28;19949;-78
2021/10/03 16:02:29;;;;;;;;;;;;;;;5.83;100.00;98730.28;4995041;28;20030;-79
2021/10/03 16:04:54;;;;;;;;;;;;;;;5.76;100.00;98744.56;4993668;28;19946;-79
2021/10/03 16:07:19;;;;;;;;;;;;;;;5.81;100.00;98742.66;4993836;28;19933;-78
2021/10/03 16:09:45;;;;;;;;;;;;;;;5.78;100.00;98753.28;4994810;28;19922;-77
2021/10/03 16:12:10;;;;;;;;;;;;;;;5.75;100.00;98753.41;4994719;28;20411;-77
2021/10/03 16:14:35;;;;;;;;;;;;;;;5.69;100.00;98756.25;4994782;28;19918;-78
2021/10/03 16:17:01;;;;;;;;;;;;;;;5.66;100.00;98762.47;4994771;28;20300;-78
2021/10/03 16:19:26;;;;;;;;;;;;;;;5.64;100.00;98770.44;4993158;28;19983;-77
2021/10/03 16:21:52;;;;;;;;;;;;;;;5.63;100.00;98771.38;4994818;28;19976;-77
2021/10/03 16:24:17;;;;;;;;;;;;;;;5.58;100.00;98775.91;4994536;28;20369;-77
2021/10/03 16:26:42;;;;;;;;;;;;;;;5.63;100.00;98783.63;4994558;28;20270;-78
2021/10/03 16:29:09;;;;;;;;;;;;;;;5.59;100.00;98793.41;4994444;28;19925;-78
2021/10/03 16:31:35;;;;;;;;;;;;;;;5.61;100.00;98801.22;4994543;28;19929;-77
2021/10/03 16:34:00;;;;;;;;;;;;;;;5.53;100.00;98814.66;4992337;28;19918;-81
2021/10/03 16:36:25;;;;;;;;;;;;;;;5.46;100.00;98826.34;4994386;28;20410;-77
2021/10/03 16:38:51;;;;;;;;;;;;;;;5.51;100.00;98819.13;4994330;28;19918;-78
2021/10/03 16:41:16;;;;;;;;;;;;;;;5.46;100.00;98828.97;4994093;28;19918;-78
2021/10/03 16:43:41;;;;;;;;;;;;;;;5.40;100.00;98829.19;4993013;28;19971;-78
2021/10/03 16:46:07;;;;;;;;;;;;;;;5.39;100.00;98833.59;4994468;28;19917;-78
2021/10/03 16:48:32;;;;;;;;;;;;;;;5.45;100.00;98848.25;4991707;28;19945;-78
2021/10/03 16:50:58;;;;;;;;;;;;;;;5.39;100.00;98861.63;4992733;28;20273;-77
2021/10/03 16:53:23;;;;;;;;;;;;;;;5.39;100.00;98882.63;4994088;28;19925;-77
2021/10/03 16:55:48;;;;;;;;;;;;;;;5.46;100.00;98907.78;4994011;28;19964;-77
2021/10/03 16:58:13;;;;;;;;;;;;;;;5.38;100.00;98912.47;4993956;28;19936;-77
2021/10/03 17:00:39;;;;;;;;;;;;;;;5.30;100.00;98914.47;4993751;28;20431;-80
2021/10/03 17:03:04;;;;;;;;;;;;;;;5.35;100.00;98921.28;4993844;28;19996;-77
2021/10/03 17:05:29;;;;;;;;;;;;;;;5.34;100.00;98927.44;4992423;28;19919;-78
2021/10/03 17:07:54;;;;;;;;;;;;;;;5.31;100.00;98924.09;4993821;28;19973;-77
2021/10/03 17:10:20;;;;;;;;;;;;;;;5.22;100.00;98914.78;4993584;28;20008;-77
2021/10/03 17:12:45;;;;;;;;;;;;;;;5.25;100.00;98926.03;4993688;28;19921;-77
2021/10/03 17:15:11;;;;;;;;;;;;;;;5.16;100.00;98947.34;4989250;28;20009;-78
2021/10/03 17:17:37;;;;;;;;;;;;;;;5.18;100.00;98969.16;4983846;28;19922;-78
2021/10/03 17:20:07;;;;;;;;;;;;;;;5.19;100.00;98980.53;4981350;28;19964;-77
2021/10/03 17:22:32;;;;;;;;;;;;;;;5.25;100.00;98999.56;4983462;28;19926;-78
2021/10/03 17:24:58;;;;;;;;;;;;;;;5.38;100.00;98989.50;4983500;28;19924;-78
2021/10/03 17:27:23;;;;;;;;;;;;;;;5.54;100.00;99013.47;4983829;28;20270;-77
2021/10/03 17:29:49;;;;;;;;;;;;;;;5.71;100.00;99036.56;4982762;28;19970;-77
2021/10/03 17:32:14;;;;;;;;;;;;;;;5.40;100.00;99042.00;4982404;28;19921;-78
2021/10/03 17:34:39;;;;;;;;;;;;;;;5.26;100.00;99058.19;4981039;28;19922;-77
2021/10/03 17:37:05;;;;;;;;;;;;;;;5.19;100.00;99057.56;4983112;28;19914;-79
2021/10/03 17:39:34;;;;;;;;;;;;;;;5.11;100.00;99080.59;4982514;28;20521;-78
2021/10/03 17:41:59;;;;;;;;;;;;;;;5.06;100.00;99080.72;4982461;28;19919;-78
2021/10/03 17:44:25;;;;;;;;;;;;;;;5.01;100.00;99106.28;4982360;28;20274;-79
2021/10/03 17:46:50;;;;;;;;;;;;;;;5.16;100.00;99083.91;4982294;28;20059;-78
2021/10/03 17:49:16;;;;;;;;;;;;;;;5.08;100.00;99096.44;4981166;28;19914;-78
2021/10/03 17:51:41;;;;;;;;;;;;;;;4.94;100.00;99088.13;4982461;28;19918;-78
2021/10/03 17:54:07;;;;;;;;;;;;;;;4.96;100.00;99102.91;4982814;28;19929;-78
2021/10/03 17:56:32;;;;;;;;;;;;;;;4.91;99.97;99124.06;4980939;28;20706;-79
2021/10/03 17:58:58;;;;;;;;;;;;;;;4.87;99.66;99132.94;4982028;28;20398;-78
2021/10/03 18:01:23;;;;;;;;;;;;;;;4.88;99.73;99133.78;4982227;28;19918;-79
2021/10/03 18:03:48;;;;;;;;;;;;;;;4.86;99.92;99139.09;4980506;28;19917;-78
2021/10/03 18:06:14;;;;;;;;;;;;;;;4.80;99.93;99143.66;4982109;28;19930;-80
2021/10/03 18:08:39;;;;;;;;;;;;;;;4.79;99.92;99155.94;4982677;28;19921;-79
2021/10/03 18:11:05;;;;;;;;;;;;;;;4.78;99.78;99153.34;4981976;28;19973;-78
2021/10/03 18:13:31;;;;;;;;;;;;;;;4.79;99.72;99163.81;4981685;28;19928;-79
2021/10/03 18:15:56;;;;;;;;;;;;;;;4.71;100.00;99166.66;4981891;28;20008;-78
2021/10/03 18:18:22;;;;;;;;;;;;;;;4.73;100.00;99162.22;4981145;28;20009;-78
2021/10/03 18:20:47;;;;;;;;;;;;;;;4.66;99.52;99186.94;4981774;28;20009;-78
2021/10/03 18:23:14;;;;;;;;;;;;;;;4.66;99.87;99178.16;4982207;28;20313;-78
2021/10/03 18:25:39;;;;;;;;;;;;;;;4.65;99.65;99166.81;4981758;28;19973;-78
2021/10/03 18:28:04;;;;;;;;;;;;;;;4.67;99.55;99172.88;4981976;28;19918;-79
2021/10/03 18:30:29;;;;;;;;;;;;;;;4.60;99.32;99173.13;4981864;28;19922;-79
2021/10/03 18:32:55;;;;;;;;;;;;;;;4.64;99.05;99228.09;4982083;28;19918;-78
2021/10/03 18:35:23;;;;;;;;;;;;;;;4.59;98.92;99223.88;4980527;28;19960;-78
2021/10/03 18:37:49;;;;;;;;;;;;;;;4.55;98.77;99234.44;4982103;28;19918;-77
2021/10/03 18:40:15;;;;;;;;;;;;;;;4.58;98.97;99256.25;4981823;28;19937;-79
2021/10/03 18:42:41;;;;;;;;;;;;;;;4.53;98.77;99251.13;4981707;28;19922;-78
2021/10/03 18:45:06;;;;;;;;;;;;;;;4.48;99.50;99259.16;4981760;28;19930;-78
2021/10/03 18:47:32;;;;;;;;;;;;;;;4.51;99.02;99259.03;4981446;28;20718;-79
2021/10/03 18:49:57;;;;;;;;;;;;;;;4.48;98.96;99253.00;4980674;28;20392;-79
2021/10/03 18:52:22;;;;;;;;;;;;;;;4.47;98.63;99253.94;4981930;28;19944;-79
2021/10/03 18:54:48;;;;;;;;;;;;;;;4.43;98.50;99231.28;4981600;28;20000;-78
2021/10/03 18:57:13;;;;;;;;;;;;;;;4.45;98.62;99251.34;4980668;28;19926;-79
2021/10/03 18:59:38;;;;;;;;;;;;;;;4.39;98.59;99243.63;4981509;28;19918;-78
2021/10/03 19:02:04;;;;;;;;;;;;;;;4.35;97.97;99250.69;4981992;28;19926;-78
2021/10/03 19:04:29;;;;;;;;;;;;;;;4.34;98.19;99261.22;4980098;28;19918;-78
2021/10/03 19:06:54;;;;;;;;;;;;;;;4.30;98.25;99257.84;4981449;28;19929;-80
2021/10/03 19:09:20;;;;;;;;;;;;;;;4.28;98.29;99262.28;4981793;28;20305;-78
2021/10/03 19:11:45;;;;;;;;;;;;;;;4.32;98.23;99249.94;4981784;28;20328;-78
2021/10/03 19:14:10;;;;;;;;;;;;;;;4.30;98.07;99246.50;4982012;28;20293;-78
2021/10/03 19:16:35;;;;;;;;;;;;;;;4.26;97.60;99239.59;4980839;28;20027;-78
2021/10/03 19:19:01;;;;;;;;;;;;;;;4.27;97.78;99249.19;4980908;28;19924;-78
2021/10/03 19:21:27;;;;;;;;;;;;;;;4.16;97.91;99258.22;4981231;28;19921;-78
2021/10/03 19:23:56;;;;;;;;;;;;;;;4.26;98.08;99257.94;4981297;28;20370;-77
2021/10/03 19:26:21;;;;;;;;;;;;;;;4.26;98.21;99266.72;4981672;28;19918;-78
2021/10/03 19:28:47;;;;;;;;;;;;;;;4.23;97.77;99284.25;4981707;28;19993;-78
2021/10/03 19:31:12;;;;;;;;;;;;;;;4.23;97.84;99294.75;4981445;28;19976;-78
2021/10/03 19:33:37;;;;;;;;;;;;;;;4.14;97.77;99291.47;4980109;28;20032;-79
2021/10/03 19:36:03;;;;;;;;;;;;;;;4.10;98.12;99289.81;4981890;28;19918;-78
2021/10/03 19:38:28;;;;;;;;;;;;;;;4.22;97.93;99293.03;4981248;28;19930;-78
2021/10/03 19:40:54;;;;;;;;;;;;;;;4.11;97.73;99294.16;4981023;28;19941;-78
2021/10/03 19:43:19;;;;;;;;;;;;;;;4.13;97.81;99304.59;4983666;28;19945;-80
2021/10/03 19:45:45;;;;;;;;;;;;;;;4.11;97.88;99316.91;4984535;28;20490;-79
2021/10/03 19:48:10;;;;;;;;;;;;;;;4.08;98.15;99320.44;4984685;28;19965;-79
2021/10/03 19:50:36;;;;;;;;;;;;;;;4.12;98.34;99331.75;4983631;28;20400;-79
2021/10/03 19:53:02;;;;;;;;;;;;;;;4.05;98.35;99336.25;4984511;28;19922;-79
2021/10/03 19:55:27;;;;;;;;;;;;;;;4.03;98.43;99343.28;4984090;28;20396;-79
2021/10/03 19:57:52;;;;;;;;;;;;;;;4.05;98.29;99357.22;4984880;28;19918;-79
2021/10/03 20:00:18;;;;;;;;;;;;;;;4.07;98.03;99351.94;4984346;28;19922;-79
2021/10/03 20:02:43;;;;;;;;;;;;;;;4.07;97.90;99355.44;4984491;28;19925;-79
2021/10/03 20:05:10;;;;;;;;;;;;;;;4.02;98.04;99361.69;4982971;28;19924;-79
2021/10/03 20:07:36;;;;;;;;;;;;;;;4.03;98.27;99359.03;4984495;28;19929;-79
2021/10/03 20:10:02;;;;;;;;;;;;;;;3.98;98.34;99355.66;4984401;28;19926;-78
2021/10/03 20:12:27;;;;;;;;;;;;;;;4.05;98.49;99356.38;4983819;28;19921;-79
2021/10/03 20:14:56;;;;;;;;;;;;;;;3.97;98.34;99349.56;4984397;28;19924;-78
2021/10/03 20:17:21;;;;;;;;;;;;;;;4.02;98.27;99359.94;4982927;28;19922;-80
2021/10/03 20:19:47;;;;;;;;;;;;;;;3.98;98.34;99368.75;4982268;28;20332;-79
2021/10/03 20:22:12;;;;;;;;;;;;;;;3.96;98.26;99363.56;4984071;28;19926;-78
2021/10/03 20:24:37;;;;;;;;;;;;;;;3.95;98.53;99364.44;4984354;28;19918;-78
2021/10/03 20:27:02;;;;;;;;;;;;;;;3.98;98.15;99364.38;4984101;28;20365;-78
2021/10/03 20:29:30;;;;;;;;;;;;;;;4.00;98.32;99356.47;4983689;28;20320;-80
2021/10/03 20:31:56;;;;;;;;;;;;;;;3.94;98.52;99351.38;4983593;28;20013;-78
2021/10/03 20:34:21;;;;;;;;;;;;;;;4.02;98.67;99359.94;4982556;28;20011;-79
2021/10/03 20:36:46;;;;;;;;;;;;;;;3.97;98.43;99367.91;4984123;28;19922;-79
2021/10/03 20:39:14;;;;;;;;;;;;;;;3.97;98.32;99364.41;4982497;28;20161;-78
2021/10/03 20:41:39;;;;;;;;;;;;;;;3.97;98.24;99367.03;4983529;28;20293;-79
2021/10/03 20:44:05;;;;;;;;;;;;;;;4.00;98.19;99364.34;4983848;28;19918;-79
2021/10/03 20:46:30;;;;;;;;;;;;;;;3.95;98.82;99371.44;4983968;28;20025;-79
2021/10/03 20:48:57;;;;;;;;;;;;;;;3.91;98.71;99367.16;4982278;28;19918;-78
2021/10/03 20:51:22;;;;;;;;;;;;;;;3.92;98.72;99374.13;4983482;28;19988;-79
2021/10/03 20:53:47;;;;;;;;;;;;;;;3.90;99.10;99376.78;4983455;28;20421;-79
2021/10/03 20:56:13;;;;;;;;;;;;;;;3.94;98.69;99382.81;4982595;28;19957;-79
2021/10/03 20:58:38;;;;;;;;;;;;;;;3.93;98.78;99391.59;4983050;28;19918;-78
2021/10/03 21:01:04;;;;;;;;;;;;;;;3.99;98.26;99399.34;4983443;28;19926;-79
2021/10/03 21:03:29;;;;;;;;;;;;;;;3.94;98.40;99399.44;4981575;28;19961;-79
2021/10/03 21:05:55;;;;;;;;;;;;;;;3.91;98.54;99406.47;4983023;28;19925;-79
2021/10/03 21:08:21;;;;;;;;;;;;;;;3.96;98.78;99412.50;4982963;28;19922;-80
2021/10/03 21:10:46;;;;;;;;;;;;;;;3.90;98.66;99400.38;4983112;28;20379;-79
2021/10/03 21:13:11;;;;;;;;;;;;;;;3.87;98.48;99408.31;4983612;28;20009;-78
2021/10/03 21:15:37;;;;;;;;;;;;;;;3.92;98.60;99400.34;4982986;28;19957;-79
2021/10/03 21:18:02;;;;;;;;;;;;;;;3.91;98.64;99409.97;4983546;28;19922;-78
2021/10/03 21:20:27;;;;;;;;;;;;;;;3.82;98.30;99399.69;4980532;28;19918;-79
2021/10/03 21:22:53;;;;;;;;;;;;;;;3.84;98.23;99397.91;4983323;28;19929;-79
2021/10/03 21:25:18;;;;;;;;;;;;;;;3.85;98.47;99398.78;4983009;28;19921;-78
2021/10/03 21:27:43;;;;;;;;;;;;;;;3.89;98.51;99395.19;4982709;28;19998;-79
2021/10/03 21:30:09;;;;;;;;;;;;;;;3.84;98.58;99404.91;4982843;28;19918;-79
2021/10/03 21:32:35;;;;;;;;;;;;;;;3.87;98.62;99405.69;4982932;28;19918;-79
2021/10/03 21:35:01;;;;;;;;;;;;;;;3.87;98.11;99402.22;4981704;28;20254;-78
2021/10/03 21:37:27;;;;;;;;;;;;;;;3.84;98.31;99403.13;4983660;28;19914;-78
2021/10/03 21:39:52;;;;;;;;;;;;;;;3.86;98.00;99406.59;4982126;28;19918;-79
2021/10/03 21:42:17;;;;;;;;;;;;;;;3.82;97.94;99425.91;4982516;28;19976;-79
2021/10/03 21:44:42;;;;;;;;;;;;;;;3.78;98.46;99438.22;4982842;28;19925;-78
2021/10/03 21:47:08;;;;;;;;;;;;;;;3.81;98.41;99432.91;4982523;28;19969;-78
2021/10/03 21:49:33;;;;;;;;;;;;;;;3.80;98.50;99441.66;4980955;28;19919;-79
2021/10/03 21:51:58;;;;;;;;;;;;;;;3.77;98.50;99460.06;4982137;28;19921;-79
2021/10/03 21:54:23;;;;;;;;;;;;;;;3.73;98.61;99457.53;4982690;28;19925;-80
2021/10/03 21:56:49;;;;;;;;;;;;;;;3.79;98.49;99466.13;4982355;28;20396;-79
2021/10/03 21:59:14;;;;;;;;;;;;;;;3.84;98.40;99473.06;4981938;28;19922;-79
2021/10/03 22:01:40;;;;;;;;;;;;;;;3.82;98.48;99476.56;4982133;28;20286;-80
2021/10/03 22:04:05;;;;;;;;;;;;;;;3.80;98.18;99483.59;4981408;28;19914;-78
2021/10/03 22:06:30;;;;;;;;;;;;;;;3.75;98.46;99488.06;4981622;28;19959;-80
2021/10/03 22:08:56;;;;;;;;;;;;;;;3.81;98.26;99487.06;4981810;28;19921;-78
2021/10/03 22:11:21;;;;;;;;;;;;;;;3.76;98.66;99492.41;4982542;28;19918;-78
2021/10/03 22:13:46;;;;;;;;;;;;;;;3.76;98.52;99495.03;4982420;28;19918;-79
2021/10/03 22:16:12;;;;;;;;;;;;;;;3.85;98.17;99498.38;4981109;28;19924;-78
2021/10/03 22:18:37;;;;;;;;;;;;;;;3.80;97.91;99493.22;4980974;28;19925;-78
2021/10/03 22:21:03;;;;;;;;;;;;;;;3.75;98.36;99490.69;4982094;28;19918;-78
2021/10/03 22:23:29;;;;;;;;;;;;;;;3.76;98.39;99489.78;4981594;28;19929;-79
2021/10/03 22:25:54;;;;;;;;;;;;;;;3.74;98.66;99483.72;4982070;28;20265;-78
2021/10/03 22:28:20;;;;;;;;;;;;;;;3.77;98.51;99470.56;4982275;28;19924;-79
2021/10/03 22:30:45;;;;;;;;;;;;;;;3.78;98.70;99468.78;4981795;28;19924;-78
2021/10/03 22:33:11;;;;;;;;;;;;;;;3.82;98.86;99479.19;4982099;28;20853;-80